Time;durP1;ratioP1;P1;durP2;ratioP2;P2;SDS_P1;SDS_P2;PMS_P1;PMS_P2;Temp;Humidity;BMP_temperature;BMP_pressure;BME280_temperature;BME280_humidity;BME280_pressure;Samples;Min_cycle;Max_cycle;Signal;HPM_P1;HPM_P2
2022/08/12 00:44:45;;;;;;;6.30;3.80;;;;;;;11.40;84.33;98414.41;108417;1280;23127;-86
2022/08/12 00:47:17;;;;;;;4.40;3.80;;;;;;;11.38;84.37;98413.45;108920;1281;22549;-85
2022/08/12 00:49:55;;;;;;;7.80;3.40;;;;;;;11.34;84.96;98409.52;109253;1281;22520;-87
2022/08/12 00:52:24;;;;;;;5.10;3.60;;;;;;;11.32;85.19;98415.82;108737;1280;22536;-88
2022/08/12 00:54:58;;;;;;;4.00;3.10;;;;;;;11.29;85.21;98412.77;108352;1281;22694;-88
2022/08/12 00:57:36;;;;;;;5.40;3.70;;;;;;;11.25;85.54;98413.11;108770;1281;22551;-87
2022/08/12 01:00:08;;;;;;;6.40;3.70;;;;;;;11.25;85.87;98412.03;106748;1281;22583;-85
2022/08/12 01:13:01;;;;;;;4.80;4.00;;;;;;;12.13;86.37;98421.00;105504;1281;24415;-85
2022/08/12 01:16:38;;;;;;;4.00;3.30;;;;;;;12.43;86.80;98418.91;105439;1281;24414;-86
2022/08/12 01:19:07;;;;;;;5.30;3.40;;;;;;;12.58;85.50;98414.91;105540;1281;25278;-87
2022/08/12 01:22:02;;;;;;;5.90;3.10;;;;;;;12.59;85.79;98409.39;105317;1281;26622;-85
2022/08/12 01:24:36;;;;;;;6.10;3.20;;;;;;;12.67;85.87;98410.79;105356;1281;22875;-86
2022/08/12 01:27:08;;;;;;;4.00;3.10;;;;;;;12.63;85.72;98408.10;105560;1281;25378;-86
2022/08/12 01:29:42;;;;;;;5.10;3.50;;;;;;;12.58;85.78;98409.02;105537;1281;25399;-87
2022/08/12 01:32:13;;;;;;;3.90;3.10;;;;;;;12.52;85.61;98405.73;105600;1281;23743;-88
2022/08/12 01:34:52;;;;;;;6.40;3.20;;;;;;;12.47;85.75;98407.05;105573;1281;22605;-88
2022/08/12 01:42:03;;;;;;;4.90;3.30;;;;;;;12.93;86.92;98398.39;105535;1281;22544;-85
2022/08/12 01:44:34;;;;;;;6.60;3.20;;;;;;;12.96;84.86;98398.48;105538;1281;23830;-84
2022/08/12 01:47:29;;;;;;;4.00;2.90;;;;;;;13.19;87.88;98397.65;105574;1281;25362;-84
2022/08/12 01:50:20;;;;;;;5.40;3.30;;;;;;;13.46;85.35;98398.27;105564;1281;24464;-85
2022/08/12 01:52:54;;;;;;;8.90;3.20;;;;;;;13.42;84.92;98402.02;105602;1281;22585;-85
2022/08/12 01:55:25;;;;;;;4.60;3.40;;;;;;;13.46;84.91;98399.29;105234;1282;23135;-85
2022/08/12 01:58:19;;;;;;;6.90;3.50;;;;;;;13.69;85.03;98397.41;105206;1283;23244;-82
2022/08/12 02:01:14;;;;;;;8.20;3.50;;;;;;;13.76;84.26;98396.92;105537;1281;25471;-83
2022/08/12 02:13:33;;;;;;;6.00;3.90;;;;;;;13.24;82.90;98388.11;105541;1281;22586;-84
2022/08/12 02:16:38;;;;;;;7.00;4.60;;;;;;;13.18;82.89;98388.66;105522;1281;22562;-84
2022/08/12 02:19:18;;;;;;;4.10;3.70;;;;;;;13.12;82.93;98386.77;105506;1281;22697;-84
2022/08/12 02:22:02;;;;;;;5.50;3.10;;;;;;;13.09;82.88;98383.23;105558;1281;22569;-84
2022/08/12 02:24:36;;;;;;;4.30;2.90;;;;;;;13.19;83.68;98379.95;105204;1282;25452;-85
2022/08/12 02:27:09;;;;;;;6.60;3.50;;;;;;;13.59;85.62;98383.21;105570;1281;22690;-85
2022/08/12 02:29:39;;;;;;;5.20;3.50;;;;;;;14.11;84.70;98380.67;105176;1281;24429;-84
2022/08/12 02:32:08;;;;;;;8.40;3.30;;;;;;;14.50;84.20;98383.16;105295;1281;22560;-84
2022/08/12 02:34:36;;;;;;;16.70;15.10;;;;;;;14.70;82.68;98381.40;105319;1284;22712;-85
2022/08/12 02:37:07;;;;;;;9.40;4.10;;;;;;;14.50;80.74;98378.98;105313;1283;22557;-85
2022/08/12 02:39:39;;;;;;;5.10;4.30;;;;;;;14.24;80.82;98373.83;105391;1283;22541;-85
2022/08/12 02:42:10;;;;;;;5.20;3.60;;;;;;;14.00;81.36;98374.61;105476;1281;22558;-84
2022/08/12 02:44:42;;;;;;;6.00;3.90;;;;;;;13.82;81.65;98373.38;105508;1281;22627;-85
2022/08/12 02:47:13;;;;;;;4.70;3.80;;;;;;;13.67;81.62;98373.31;105345;1282;22865;-84
2022/08/12 02:50:02;;;;;;;5.10;4.50;;;;;;;13.59;81.67;98371.82;105289;1282;24327;-84
2022/08/12 02:52:33;;;;;;;4.50;3.50;;;;;;;13.58;81.65;98371.68;105552;1281;25381;-86
2022/08/12 02:55:25;;;;;;;6.50;4.00;;;;;;;13.56;81.63;98373.39;106024;1281;24264;-84
2022/08/12 02:58:08;;;;;;;6.70;3.80;;;;;;;13.61;81.92;98372.56;105460;1281;23220;-85
2022/08/12 03:00:43;;;;;;;4.40;4.00;;;;;;;13.71;81.93;98370.60;105308;1281;25012;-84
2022/08/12 03:03:13;;;;;;;4.90;4.30;;;;;;;13.73;81.64;98372.79;105516;1281;22553;-84
2022/08/12 03:05:53;;;;;;;7.40;3.80;;;;;;;13.63;81.62;98373.98;105541;1281;22538;-84
2022/08/12 03:08:28;;;;;;;6.40;3.80;;;;;;;13.42;81.62;98363.86;105520;1281;22563;-83
2022/08/12 03:11:26;;;;;;;7.80;3.90;;;;;;;13.36;81.75;98360.55;105523;1281;25317;-83
2022/08/12 03:14:00;;;;;;;5.40;3.80;;;;;;;13.34;82.67;98360.68;105559;1281;25637;-84
2022/08/12 03:16:30;;;;;;;5.60;3.40;;;;;;;13.72;84.17;98362.23;105563;1281;22568;-84
2022/08/12 03:19:00;;;;;;;4.10;3.30;;;;;;;14.06;83.46;98364.05;105526;1281;23231;-84
2022/08/12 03:21:31;;;;;;;4.40;3.60;;;;;;;14.47;83.83;98364.67;105497;1281;24231;-85
2022/08/12 03:24:25;;;;;;;5.10;3.90;;;;;;;14.88;82.27;98364.16;105493;1281;22623;-84
2022/08/12 03:26:54;;;;;;;4.60;3.50;;;;;;;14.73;80.78;98362.84;105310;1281;22671;-84
2022/08/12 03:29:32;;;;;;;6.00;4.20;;;;;;;14.48;80.25;98361.63;105530;1281;25462;-85
2022/08/12 03:32:14;;;;;;;5.40;4.00;;;;;;;14.33;80.43;98362.88;105497;1281;24218;-86
2022/08/12 03:35:06;;;;;;;5.50;4.40;;;;;;;14.07;79.83;98366.86;105360;1281;24106;-83
2022/08/12 03:37:36;;;;;;;4.80;4.00;;;;;;;13.86;80.96;98366.11;105529;1281;25630;-84
2022/08/12 03:40:07;;;;;;;8.20;4.00;;;;;;;13.80;80.80;98367.89;105506;1281;24421;-84
2022/08/12 04:02:16;;;;;;;6.60;4.20;;;;;;;14.02;79.75;98361.28;105523;1281;24358;-84
2022/08/12 04:04:46;;;;;;;6.70;4.20;;;;;;;13.96;79.59;98353.59;105454;1281;25607;-84
2022/08/12 04:07:16;;;;;;;4.80;3.60;;;;;;;13.86;79.74;98355.06;105441;1281;24493;-84
2022/08/12 04:09:45;;;;;;;5.20;4.40;;;;;;;13.87;80.02;98358.27;105452;1281;24259;-84
2022/08/12 04:15:01;;;;;;;9.20;4.70;;;;;;;13.81;79.70;98373.14;105497;1281;23346;-83
2022/08/12 04:17:30;;;;;;;7.00;4.30;;;;;;;13.74;79.60;98374.00;105294;1281;22541;-83
2022/08/12 04:19:58;;;;;;;5.90;4.20;;;;;;;13.70;80.03;98376.02;105547;1281;24265;-83
2022/08/12 04:22:29;;;;;;;7.20;4.20;;;;;;;13.84;80.57;98378.38;105250;1281;24075;-83
2022/08/12 04:25:04;;;;;;;13.90;12.60;;;;;;;13.97;79.83;98383.09;105491;1281;23369;-83
2022/08/12 04:27:33;;;;;;;5.50;4.60;;;;;;;13.96;79.64;98386.10;105507;1281;25286;-83
2022/08/12 04:30:03;;;;;;;6.70;5.40;;;;;;;13.96;80.01;98386.27;105529;1281;24291;-83
2022/08/12 04:32:51;;;;;;;5.60;4.90;;;;;;;14.00;80.51;98384.70;105367;1281;22817;-83
2022/08/12 04:35:21;;;;;;;5.30;4.80;;;;;;;14.26;80.69;98380.83;105476;1281;22570;-83
2022/08/12 04:37:54;;;;;;;5.00;4.50;;;;;;;14.32;79.95;98381.83;105421;1281;22667;-83
2022/08/12 04:40:31;;;;;;;9.10;4.90;;;;;;;14.30;80.12;98379.10;105431;1281;24321;-85
2022/08/12 04:43:02;;;;;;;7.80;5.10;;;;;;;14.28;80.46;98374.34;105370;1281;24312;-83
2022/08/12 04:45:31;;;;;;;6.20;5.20;;;;;;;14.30;80.85;98370.98;105555;1281;24268;-84
2022/08/12 04:48:00;;;;;;;5.20;4.20;;;;;;;14.38;80.99;98370.11;105548;1281;22548;-84
2022/08/12 04:50:30;;;;;;;6.80;5.30;;;;;;;14.60;81.39;98370.89;105461;1281;24267;-84
2022/08/12 04:53:06;;;;;;;6.50;4.80;;;;;;;14.81;81.66;98375.38;105245;1281;25359;-84
2022/08/12 04:55:41;;;;;;;6.20;4.60;;;;;;;15.18;81.89;98377.83;105275;1282;22916;-83
2022/08/12 04:58:11;;;;;;;7.00;5.40;;;;;;;15.49;81.25;98376.77;105508;1281;22721;-84
2022/08/12 05:00:41;;;;;;;6.40;5.20;;;;;;;15.65;80.96;98375.04;105483;1281;25675;-84
2022/08/12 05:03:09;;;;;;;5.90;5.10;;;;;;;15.69;80.84;98377.29;105281;1281;22641;-85
2022/08/12 05:05:39;;;;;;;5.90;5.20;;;;;;;15.70;81.06;98382.55;105354;1281;22577;-85
2022/08/12 05:08:14;;;;;;;10.40;4.90;;;;;;;15.89;81.90;98386.88;105424;1281;22553;-85
2022/08/12 05:10:45;;;;;;;7.80;4.80;;;;;;;16.29;82.20;98390.81;105711;1281;22686;-85
2022/08/12 05:13:20;;;;;;;7.50;5.20;;;;;;;16.71;81.72;98390.10;106655;1268;22716;-89
2022/08/12 05:15:50;;;;;;;7.20;5.20;;;;;;;16.80;80.14;98381.75;107397;1281;22541;-92
2022/08/12 05:18:34;;;;;;;10.70;7.70;;;;;;;16.67;79.95;98386.59;106973;1281;25358;-91
2022/08/12 05:21:07;;;;;;;61.50;21.60;;;;;;;16.53;80.07;98384.53;106185;1281;22478;-92
2022/08/12 05:23:37;;;;;;;26.10;12.40;;;;;;;16.42;80.29;98381.14;106096;1281;25640;-91
2022/08/12 05:26:05;;;;;;;12.70;7.50;;;;;;;16.39;80.61;98380.52;106069;1281;22540;-89
2022/08/12 05:28:34;;;;;;;207.70;60.40;;;;;;;16.41;80.79;98380.28;106003;1281;22634;-89
2022/08/12 05:31:03;;;;;;;379.80;107.80;;;;;;;16.43;80.88;98384.98;105888;1281;22718;-91
2022/08/12 05:33:38;;;;;;;128.40;41.60;;;;;;;16.43;80.83;98384.98;107228;1281;22632;-89
2022/08/12 05:36:14;;;;;;;33.80;15.40;;;;;;;16.43;80.95;98376.64;107521;1281;22547;-94
2022/08/12 05:38:55;;;;;;;19.90;10.70;;;;;;;16.43;81.09;98373.95;107459;1281;24419;-91
2022/08/12 05:41:34;;;;;;;11.00;7.60;;;;;;;16.48;81.04;98372.29;106348;1281;23454;-91
2022/08/12 05:44:06;;;;;;;10.70;7.00;;;;;;;16.49;81.01;98374.80;106424;1281;22711;-92
2022/08/12 05:46:38;;;;;;;12.50;8.00;;;;;;;16.54;81.31;98371.91;106490;1281;22560;-91
2022/08/12 05:49:08;;;;;;;9.80;7.30;;;;;;;16.61;81.51;98374.90;106469;1281;22566;-91
2022/08/12 05:51:38;;;;;;;11.00;7.10;;;;;;;16.65;81.34;98375.90;107841;1281;24193;-92
2022/08/12 05:54:10;;;;;;;10.30;7.30;;;;;;;16.65;81.08;98377.90;107725;1280;25352;-92
2022/08/12 05:56:42;;;;;;;8.90;6.20;;;;;;;16.68;81.26;98382.20;106778;1281;23807;-92
2022/08/12 05:59:11;;;;;;;9.70;6.30;;;;;;;16.69;81.19;98382.39;106849;1281;23208;-92
2022/08/12 06:01:41;;;;;;;10.30;6.60;;;;;;;16.70;81.38;98380.72;106409;1281;24247;-89
2022/08/12 06:04:30;;;;;;;8.50;6.20;;;;;;;16.71;81.42;98382.87;106126;1281;25925;-90
2022/08/12 06:07:00;;;;;;;9.50;5.70;;;;;;;16.74;81.46;98381.83;106051;1281;22578;-89
2022/08/12 06:09:29;;;;;;;7.40;5.80;;;;;;;16.82;81.60;98386.14;105919;1281;22790;-91
2022/08/12 06:11:58;;;;;;;8.50;5.30;;;;;;;16.92;81.55;98387.30;105870;1280;24212;-90
2022/08/12 06:14:35;;;;;;;17.10;7.70;;;;;;;17.01;81.52;98391.07;105631;1281;25398;-89
2022/08/12 06:17:08;;;;;;;8.90;5.20;;;;;;;17.09;81.62;98393.88;105631;1281;24320;-91
2022/08/12 06:19:36;;;;;;;9.20;5.90;;;;;;;17.16;81.55;98396.17;105338;1282;25263;-90
2022/08/12 06:22:25;;;;;;;8.30;5.40;;;;;;;17.26;81.52;98395.31;105647;1281;25398;-90
2022/08/12 06:24:53;;;;;;;10.00;5.70;;;;;;;17.35;81.49;98392.77;105650;1281;23426;-90
2022/08/12 06:27:22;;;;;;;11.00;6.10;;;;;;;17.46;81.46;98395.17;105601;1281;22723;-83
2022/08/12 06:29:50;;;;;;;8.00;4.70;;;;;;;17.58;81.95;98393.56;105645;1281;22570;-84
2022/08/12 06:32:38;;;;;;;8.30;4.90;;;;;;;17.98;81.95;98393.04;105582;1281;22563;-84
2022/08/12 06:35:26;;;;;;;6.40;4.50;;;;;;;18.21;81.14;98393.35;105604;1281;25307;-84
2022/08/12 06:38:15;;;;;;;6.20;4.90;;;;;;;18.37;80.73;98387.95;105577;1281;25036;-85
2022/08/12 06:43:32;;;;;;;7.60;5.30;;;;;;;18.70;80.43;98387.66;105654;1281;22826;-83
2022/08/12 06:46:22;;;;;;;6.50;4.70;;;;;;;18.83;80.57;98393.02;105631;1281;25508;-85
2022/08/12 06:48:57;;;;;;;8.10;5.00;;;;;;;19.07;80.24;98393.39;105665;1281;24710;-82
2022/08/12 06:51:29;;;;;;;10.40;5.00;;;;;;;19.21;79.99;98395.02;105652;1281;24116;-83
2022/08/12 06:53:58;;;;;;;7.70;5.20;;;;;;;19.33;79.31;98394.42;105509;1281;22724;-84
2022/08/12 06:56:27;;;;;;;8.50;4.40;;;;;;;19.38;79.02;98395.05;106408;1281;22687;-85
2022/08/12 06:59:15;;;;;;;9.50;5.70;;;;;;;19.55;79.05;98396.89;105998;1281;22629;-82
2022/08/12 07:01:43;;;;;;;7.10;5.50;;;;;;;19.80;78.87;98393.41;105763;1282;24294;-87
2022/08/12 07:04:19;;;;;;;8.20;5.20;;;;;;;19.93;78.15;98394.58;105605;1282;22584;-85
2022/08/12 07:07:08;;;;;;;7.70;5.20;;;;;;;19.96;77.98;98392.83;105619;1281;22694;-85
2022/08/12 07:09:41;;;;;;;9.10;5.40;;;;;;;19.91;77.58;98386.31;105916;1281;22544;-83
2022/08/12 07:12:30;;;;;;;8.60;5.10;;;;;;;19.90;76.35;98386.11;105867;1281;22784;-84
2022/08/12 07:15:00;;;;;;;10.80;5.40;;;;;;;19.93;77.23;98387.08;105725;1282;24213;-84
2022/08/12 07:17:34;;;;;;;7.80;4.90;;;;;;;19.86;76.75;98383.66;105987;1281;25239;-85
2022/08/12 07:20:10;;;;;;;9.70;5.40;;;;;;;19.85;77.25;98386.77;105938;1280;23936;-84
2022/08/12 07:22:59;;;;;;;12.60;6.50;;;;;;;19.91;76.98;98390.83;105967;1281;24323;-84
2022/08/12 07:25:30;;;;;;;8.80;6.10;;;;;;;19.89;76.63;98392.89;106003;1280;22584;-85
2022/08/12 07:28:12;;;;;;;10.10;5.00;;;;;;;20.00;77.06;98395.21;105884;1281;22551;-83
2022/08/12 07:30:48;;;;;;;9.10;5.10;;;;;;;20.29;76.59;98387.86;106076;1281;24177;-85
2022/08/12 07:33:21;;;;;;;8.40;5.40;;;;;;;20.47;76.21;98390.92;106014;1281;22556;-86
2022/08/12 07:35:52;;;;;;;7.80;6.00;;;;;;;20.52;75.28;98390.81;106108;1281;22759;-84
2022/08/12 07:38:37;;;;;;;10.30;7.00;;;;;;;20.48;75.39;98395.25;106095;1280;25375;-84
2022/08/12 07:41:10;;;;;;;7.80;5.50;;;;;;;20.43;75.09;98391.36;106044;1280;22590;-83
2022/08/12 07:43:47;;;;;;;6.20;5.00;;;;;;;20.39;74.88;98390.33;106000;1281;24428;-83
2022/08/12 07:46:21;;;;;;;7.20;5.10;;;;;;;20.44;75.08;98386.77;106105;1280;24341;-82
2022/08/12 07:48:50;;;;;;;;;;;;;;;20.69;74.55;98379.98;106129;1280;22571;-85
2022/08/12 07:51:20;;;;;;;7.70;5.30;;;;;;;20.78;74.18;98382.88;106063;1281;22560;-84
2022/08/12 07:53:55;;;;;;;8.00;5.20;;;;;;;20.79;73.84;98386.89;105945;1281;24222;-83
2022/08/12 07:56:30;;;;;;;7.20;4.40;;;;;;;20.85;73.96;98388.83;105882;1281;25944;-82
2022/08/12 07:58:59;;;;;;;9.20;5.30;;;;;;;20.91;73.79;98385.13;105715;1281;25297;-83
2022/08/12 08:01:29;;;;;;;6.50;5.10;;;;;;;21.00;73.47;98386.45;105877;1281;22694;-83
2022/08/12 08:06:48;;;;;;;14.90;6.10;;;;;;;20.93;72.32;98388.16;106084;1281;22596;-82
2022/08/12 08:09:20;;;;;;;8.30;5.10;;;;;;;20.98;72.22;98387.73;105668;1282;25414;-83
2022/08/12 08:14:35;;;;;;;7.00;5.20;;;;;;;21.25;71.55;98386.63;105839;1281;23052;-83
2022/08/12 08:17:05;;;;;;;7.40;5.50;;;;;;;21.30;71.46;98387.69;105843;1281;22708;-83
2022/08/12 08:19:33;;;;;;;7.60;5.50;;;;;;;21.42;70.61;98394.39;105888;1281;25500;-85
2022/08/12 08:22:21;;;;;;;9.00;5.60;;;;;;;21.49;70.56;98392.83;105836;1281;22709;-83
2022/08/12 08:25:10;;;;;;;9.20;5.60;;;;;;;21.53;70.44;98391.27;105862;1281;24428;-84
2022/08/12 08:28:00;;;;;;;8.50;5.60;;;;;;;21.64;70.08;98392.81;105610;1281;24313;-84
2022/08/12 08:30:30;;;;;;;6.90;5.30;;;;;;;21.70;69.74;98389.19;105943;1281;23262;-84
2022/08/12 08:32:58;;;;;;;7.50;5.30;;;;;;;21.76;69.63;98385.94;105842;1281;25374;-83
2022/08/12 08:35:26;;;;;;;6.60;4.70;;;;;;;21.84;69.08;98387.19;105885;1281;24180;-83
2022/08/12 08:38:16;;;;;;;7.70;4.70;;;;;;;21.95;69.31;98392.20;105907;1281;25421;-84
2022/08/12 08:44:09;;;;;;;8.50;5.70;;;;;;;22.25;68.50;98388.24;105864;1281;22792;-83
2022/08/12 08:46:39;;;;;;;8.10;4.70;;;;;;;22.29;68.07;98386.20;105859;1281;22541;-83
2022/08/12 08:49:07;;;;;;;6.80;5.20;;;;;;;22.33;67.70;98388.87;105838;1281;25491;-82
2022/08/12 08:51:37;;;;;;;5.10;4.10;;;;;;;22.44;67.59;98386.77;105671;1282;22560;-84
2022/08/12 08:54:07;;;;;;;6.50;4.20;;;;;;;22.55;67.13;98387.05;105854;1281;22673;-83
2022/08/12 08:56:42;;;;;;;8.10;4.60;;;;;;;22.67;66.77;98393.15;105897;1281;22729;-84
2022/08/12 08:59:12;;;;;;;10.00;5.00;;;;;;;22.83;66.42;98390.82;106100;1281;22723;-84
2022/08/12 09:01:41;;;;;;;6.40;4.60;;;;;;;22.90;65.79;98393.91;106094;1280;24275;-84
2022/08/12 09:04:12;;;;;;;7.20;4.20;;;;;;;22.93;66.07;98392.39;106049;1280;22802;-86
2022/08/12 09:07:01;;;;;;;7.00;4.80;;;;;;;23.05;65.80;98392.67;105827;1281;22547;-83
2022/08/12 09:09:50;;;;;;;9.90;4.60;;;;;;;23.20;65.02;98390.02;105734;1281;24213;-85
2022/08/12 09:15:24;;;;;;;7.20;4.90;;;;;;;23.30;63.91;98395.81;106806;1281;22578;-86
2022/08/12 09:18:04;;;;;;;9.10;5.30;;;;;;;23.35;63.98;98397.59;107348;1281;22544;-85
2022/08/12 09:20:52;;;;;;;5.90;4.00;;;;;;;23.49;64.10;98395.83;107606;1281;22494;-85
2022/08/12 09:23:20;;;;;;;8.50;4.80;;;;;;;23.61;62.78;98395.05;107612;1280;22567;-86
2022/08/12 09:26:08;;;;;;;9.10;4.40;;;;;;;23.81;62.35;98399.41;107058;1281;25239;-86
2022/08/12 09:28:39;;;;;;;7.50;4.10;;;;;;;24.02;62.47;98398.33;105565;1281;22724;-86
2022/08/12 09:31:08;;;;;;;5.60;4.30;;;;;;;24.16;61.82;98398.15;105976;1281;22682;-86
2022/08/12 09:33:56;;;;;;;6.60;3.80;;;;;;;24.28;61.90;98402.15;105903;1281;22563;-86
2022/08/12 09:36:45;;;;;;;4.10;3.20;;;;;;;24.25;60.73;98407.39;106041;1281;25245;-86
2022/08/12 09:39:30;;;;;;;5.30;3.50;;;;;;;24.30;60.99;98406.81;105972;1281;24257;-85
2022/08/12 09:45:24;;;;;;;5.60;3.30;;;;;;;24.28;60.00;98410.71;105900;1281;22700;-86
2022/08/12 09:48:18;;;;;;;3.80;3.10;;;;;;;24.23;58.79;98407.98;106092;1281;25516;-87
2022/08/12 09:50:50;;;;;;;4.50;3.40;;;;;;;24.07;59.30;98406.55;105180;1281;1360470;-87
2022/08/12 09:53:25;;;;;;;6.10;3.00;;;;;;;23.93;59.52;98407.11;105936;1281;24387;-86
2022/08/12 09:56:11;;;;;;;6.50;4.20;;;;;;;23.76;58.80;98407.76;105839;1281;25281;-84
2022/08/12 09:58:59;;;;;;;5.10;4.00;;;;;;;23.51;59.51;98402.85;105992;1280;25327;-85
2022/08/12 10:01:29;;;;;;;5.50;3.90;;;;;;;23.44;59.48;98401.25;105796;1281;25346;-86
2022/08/12 10:04:17;;;;;;;10.00;3.50;;;;;;;23.38;58.94;98395.27;105974;1281;26557;-85
2022/08/12 10:06:47;;;;;;;5.80;4.10;;;;;;;23.50;59.19;98393.55;106032;1279;24528;-85
2022/08/12 10:09:22;;;;;;;5.90;3.40;;;;;;;23.78;58.91;98389.93;105969;1280;23328;-86
2022/08/12 10:15:01;;;;;;;15.40;3.80;;;;;;;24.24;56.99;98387.64;106211;1281;22540;-84
2022/08/12 10:17:29;;;;;;;5.60;3.60;;;;;;;24.42;57.20;98383.48;106379;1281;22563;-85
2022/08/12 10:19:57;;;;;;;5.70;3.50;;;;;;;24.67;56.69;98379.00;105964;1281;24289;-84
2022/08/12 10:22:29;;;;;;;6.10;3.70;;;;;;;24.82;56.42;98378.97;105989;1281;22896;-84
2022/08/12 10:31:29;;;;;;;5.60;3.80;;;;;;;25.30;54.19;98371.61;105959;1281;24028;-84
2022/08/12 10:34:14;;;;;;;9.20;4.30;;;;;;;25.02;54.85;98373.68;105987;1281;24250;-85
2022/08/12 10:36:57;;;;;;;7.70;4.30;;;;;;;25.02;55.65;98369.44;106002;1281;23488;-83
2022/08/12 10:39:45;;;;;;;4.40;3.90;;;;;;;25.18;54.76;98358.69;106107;1281;24428;-85
2022/08/12 10:45:30;;;;;;;4.00;3.60;;;;;;;25.46;53.95;98348.84;106006;1281;23022;-84
2022/08/12 10:48:00;;;;;;;5.60;3.60;;;;;;;25.46;53.58;98351.75;106045;1281;25368;-86
2022/08/12 10:50:48;;;;;;;4.00;3.20;;;;;;;25.51;53.34;98349.17;106011;1281;22551;-86
2022/08/12 10:53:33;;;;;;;5.90;3.70;;;;;;;25.58;52.74;98350.71;106005;1281;22558;-86
2022/08/12 10:56:17;;;;;;;4.80;3.40;;;;;;;25.66;51.92;98351.05;106060;1281;22544;-82
2022/08/12 10:58:45;;;;;;;5.20;4.10;;;;;;;25.71;52.38;98354.61;106130;1281;22541;-82
2022/08/12 11:01:15;;;;;;;6.20;3.70;;;;;;;25.77;51.79;98350.07;106079;1281;26689;-84
2022/08/12 11:04:04;;;;;;;6.30;4.00;;;;;;;25.79;52.17;98349.61;106045;1281;22557;-83
2022/08/12 11:06:52;;;;;;;6.90;3.50;;;;;;;26.00;51.57;98343.62;105952;1281;25269;-83
2022/08/12 11:09:41;;;;;;;4.80;3.40;;;;;;;26.13;51.21;98340.10;105908;1281;22588;-82
2022/08/12 11:12:29;;;;;;;5.40;3.80;;;;;;;26.13;51.11;98343.73;105975;1280;22697;-82
2022/08/12 11:15:20;;;;;;;6.70;3.70;;;;;;;26.14;51.22;98339.16;105843;1281;22767;-83
2022/08/12 11:18:08;;;;;;;7.40;3.50;;;;;;;26.29;50.06;98337.29;106042;1280;22558;-81
2022/08/12 11:20:46;;;;;;;4.70;3.80;;;;;;;26.27;49.31;98332.23;106131;1281;23949;-82
2022/08/12 11:23:15;;;;;;;3.50;3.20;;;;;;;25.96;49.78;98334.30;105845;1282;22680;-83
2022/08/12 11:26:05;;;;;;;6.30;3.60;;;;;;;25.63;50.11;98337.48;106086;1277;24334;-83
2022/08/12 11:28:35;;;;;;;9.70;3.60;;;;;;;25.60;50.13;98340.71;106122;1280;25229;-83
2022/08/12 11:31:06;;;;;;;5.30;3.60;;;;;;;25.74;50.30;98331.60;106210;1281;22576;-84
2022/08/12 11:33:40;;;;;;;6.20;3.40;;;;;;;25.96;49.98;98332.80;106137;1281;26290;-84
2022/08/12 11:36:29;;;;;;;3.70;2.80;;;;;;;26.19;49.03;98327.56;106098;1280;25363;-83
2022/08/12 11:38:58;;;;;;;9.60;3.20;;;;;;;26.32;49.02;98322.14;106077;1281;22543;-83
2022/08/12 11:41:33;;;;;;;4.40;3.30;;;;;;;26.43;48.04;98319.54;105926;1281;22573;-82
2022/08/12 11:44:02;;;;;;;5.30;3.30;;;;;;;26.61;48.56;98327.45;106081;1280;25247;-83
2022/08/12 11:46:53;;;;;;;5.60;3.40;;;;;;;26.74;47.98;98331.48;106146;1281;22576;-83
2022/08/12 11:49:22;;;;;;;7.30;2.90;;;;;;;26.87;47.93;98332.41;105800;1281;25632;-82
2022/08/12 11:52:03;;;;;;;4.30;2.80;;;;;;;26.87;47.85;98330.29;106119;1281;22644;-84
2022/08/12 11:54:51;;;;;;;8.30;3.20;;;;;;;26.69;48.17;98333.23;105894;1281;23024;-83
2022/08/12 11:57:21;;;;;;;5.30;2.80;;;;;;;26.48;48.23;98329.97;105836;1281;22566;-83
2022/08/12 12:00:10;;;;;;;5.50;2.90;;;;;;;26.52;48.26;98326.27;106005;1280;22686;-86
2022/08/12 12:02:58;;;;;;;4.30;3.30;;;;;;;26.66;47.33;98325.56;106093;1281;22706;-84
2022/08/12 12:05:26;;;;;;;5.70;2.70;;;;;;;26.64;47.30;98329.12;106015;1280;22564;-84
2022/08/12 12:08:06;;;;;;;4.00;2.60;;;;;;;26.77;46.21;98327.45;106113;1281;24441;-85
2022/08/12 12:10:54;;;;;;;3.70;2.50;;;;;;;26.79;45.73;98325.88;106138;1280;22563;-85
2022/08/12 12:13:23;;;;;;;3.70;2.70;;;;;;;26.55;44.91;98327.06;106072;1280;22589;-83
2022/08/12 12:16:11;;;;;;;3.90;2.80;;;;;;;26.26;45.71;98328.20;105944;1281;22553;-83
2022/08/12 12:18:39;;;;;;;8.10;2.50;;;;;;;26.36;45.33;98328.85;105841;1281;24108;-83
2022/08/12 12:21:07;;;;;;;2.90;2.60;;;;;;;26.39;45.70;98325.14;105960;1280;22553;-82
2022/08/12 12:23:37;;;;;;;3.90;2.60;;;;;;;26.44;45.54;98323.88;106009;1281;24195;-83
2022/08/12 12:26:14;;;;;;;5.10;3.00;;;;;;;26.22;45.29;98321.41;105813;1281;22576;-83
2022/08/12 12:29:03;;;;;;;4.10;2.70;;;;;;;26.28;45.62;98317.73;105797;1281;22720;-84
2022/08/12 12:31:37;;;;;;;7.10;2.70;;;;;;;26.36;45.65;98315.90;105830;1283;24257;-85
2022/08/12 12:34:25;;;;;;;3.80;2.70;;;;;;;26.51;45.59;98308.10;105936;1281;23056;-85
2022/08/12 12:36:57;;;;;;;3.30;2.50;;;;;;;26.80;45.53;98308.64;105853;1281;24192;-84
2022/08/12 12:39:27;;;;;;;5.10;2.30;;;;;;;26.88;45.04;98311.73;106101;1281;25461;-82
2022/08/12 12:41:55;;;;;;;5.60;2.90;;;;;;;26.77;44.91;98309.52;106106;1280;25678;-83
2022/08/12 12:44:43;;;;;;;4.80;2.70;;;;;;;26.92;45.34;98304.05;106128;1280;24160;-84
2022/08/12 12:47:20;;;;;;;3.90;2.70;;;;;;;27.23;44.80;98298.86;105854;1281;23460;-83
2022/08/12 12:49:56;;;;;;;4.70;2.70;;;;;;;27.30;44.29;98296.95;105811;1281;27921;-84
2022/08/12 12:52:25;;;;;;;4.30;2.60;;;;;;;27.31;44.30;98295.52;105813;1281;22913;-84
2022/08/12 12:54:57;;;;;;;3.70;2.60;;;;;;;27.50;43.20;98294.89;106119;1281;22565;-83
2022/08/12 12:57:25;;;;;;;4.00;2.80;;;;;;;27.64;43.07;98287.08;106109;1281;26573;-84
2022/08/12 13:00:16;;;;;;;4.10;2.40;;;;;;;27.89;42.52;98281.27;106022;1281;24411;-83
2022/08/12 13:02:51;;;;;;;3.30;2.40;;;;;;;28.17;42.50;98281.55;105870;1281;24113;-81
2022/08/12 13:05:28;;;;;;;4.70;3.10;;;;;;;28.49;42.55;98276.73;105831;1283;26687;-83
2022/08/12 13:08:00;;;;;;;5.00;2.70;;;;;;;28.79;42.24;98272.33;105789;1282;23384;-84
2022/08/12 13:10:30;;;;;;;3.00;2.40;;;;;;;29.06;42.00;98271.67;105930;1281;22693;-83
2022/08/12 13:13:06;;;;;;;5.70;2.60;;;;;;;29.15;40.14;98265.80;106012;1281;24329;-84
2022/08/12 13:15:56;;;;;;;6.50;2.50;;;;;;;29.14;41.09;98262.56;106122;1281;22609;-83
2022/08/12 13:18:35;;;;;;;4.00;2.20;;;;;;;29.35;40.93;98262.77;105923;1281;24305;-82
2022/08/12 13:21:05;;;;;;;3.20;2.30;;;;;;;29.56;40.49;98259.26;106137;1281;22549;-80
2022/08/12 13:23:46;;;;;;;4.40;2.50;;;;;;;29.67;39.74;98256.92;106096;1281;22724;-81
2022/08/12 13:26:17;;;;;;;3.40;2.20;;;;;;;29.77;39.55;98255.59;106002;1281;27253;-81
2022/08/12 13:28:49;;;;;;;5.40;2.70;;;;;;;30.02;39.61;98251.01;105415;1281;22719;-81
2022/08/12 13:31:23;;;;;;;3.40;2.20;;;;;;;30.21;38.95;98248.80;105418;1281;24291;-81
2022/08/12 13:33:54;;;;;;;4.40;2.60;;;;;;;30.28;37.48;98247.54;105821;1281;22553;-81
2022/08/12 13:36:42;;;;;;;3.30;2.30;;;;;;;30.24;38.74;98244.56;105411;1281;24118;-81
2022/08/12 13:39:11;;;;;;;3.40;2.20;;;;;;;30.26;37.70;98239.14;105412;1281;25357;-81
2022/08/12 13:41:43;;;;;;;3.70;2.20;;;;;;;30.21;37.11;98238.02;105838;1281;25421;-81
2022/08/12 13:44:11;;;;;;;4.40;2.40;;;;;;;30.18;36.89;98242.59;105782;1281;22713;-82
2022/08/12 13:46:40;;;;;;;3.70;2.10;;;;;;;30.15;37.37;98243.97;105794;1281;22569;-85
2022/08/12 13:49:14;;;;;;;4.10;2.50;;;;;;;30.27;37.14;98238.56;105717;1281;22540;-84
2022/08/12 13:52:03;;;;;;;2.90;2.30;;;;;;;30.43;37.24;98241.71;105803;1281;22637;-84
2022/08/12 13:54:32;;;;;;;3.20;2.70;;;;;;;30.58;37.38;98240.65;105745;1281;25389;-83
2022/08/12 13:57:00;;;;;;;4.60;2.20;;;;;;;30.79;36.50;98247.20;105834;1281;22707;-83
2022/08/12 13:59:29;;;;;;;6.10;2.30;;;;;;;30.83;36.64;98244.20;105803;1281;22540;-82
2022/08/12 14:02:16;;;;;;;3.70;2.30;;;;;;;30.84;36.09;98239.98;105809;1281;23914;-79
2022/08/12 14:04:44;;;;;;;3.60;2.20;;;;;;;30.67;35.88;98234.68;105449;1281;25542;-82
2022/08/12 14:07:24;;;;;;;4.20;2.20;;;;;;;30.70;36.02;98235.52;105775;1281;25381;-83